Time;durP1;ratioP1;P1;durP2;ratioP2;P2;SDS_P1;SDS_P2;PMS_P1;PMS_P2;Temp;Humidity;BMP_temperature;BMP_pressure;BME280_temperature;BME280_humidity;BME280_pressure;Samples;Min_cycle;Max_cycle;Signal;HPM_P1;HPM_P2
2022/12/27 00:02:28;;;;;;;45.85;28.87;;;20.00;89.30;;;;;;1885901;74;21095;-85
2022/12/27 00:05:02;;;;;;;42.88;27.87;;;20.00;89.30;;;;;;1892835;74;21664;-70
2022/12/27 00:07:33;;;;;;;45.48;27.80;;;20.00;89.30;;;;;;1899480;74;21056;-71
2022/12/27 00:10:11;;;;;;;42.07;26.37;;;20.00;89.10;;;;;;1890761;74;21455;-72
2022/12/27 00:12:42;;;;;;;44.53;27.02;;;20.00;88.90;;;;;;1898192;74;21724;-72
2022/12/27 00:15:13;;;;;;;95.45;30.45;;;20.10;88.10;;;;;;1893952;74;21123;-71
2022/12/27 00:17:44;;;;;;;44.00;25.68;;;20.10;88.30;;;;;;1868783;75;21046;-71
2022/12/27 00:20:15;;;;;;;41.02;26.17;;;20.20;88.40;;;;;;1873955;76;21222;-70
2022/12/27 00:22:47;;;;;;;37.90;26.20;;;20.10;88.40;;;;;;1868340;75;21208;-69
2022/12/27 00:25:19;;;;;;;40.55;25.00;;;20.20;88.60;;;;;;1868000;75;21123;-69
2022/12/27 00:27:51;;;;;;;36.03;23.65;;;20.20;88.30;;;;;;1864454;75;21125;-69
2022/12/27 00:30:23;;;;;;;41.92;23.10;;;20.20;88.10;;;;;;1872225;75;21153;-70
2022/12/27 00:32:55;;;;;;;30.90;18.60;;;20.30;87.30;;;;;;1869205;75;21380;-69
2022/12/27 00:35:26;;;;;;;30.08;17.98;;;20.30;87.30;;;;;;1875278;75;21163;-70
2022/12/27 00:37:57;;;;;;;22.87;15.48;;;20.40;87.30;;;;;;1863286;75;21251;-70
2022/12/27 00:40:28;;;;;;;22.75;15.43;;;20.40;87.30;;;;;;1865729;75;21138;-69
2022/12/27 00:42:59;;;;;;;25.80;14.10;;;20.40;87.10;;;;;;1868884;75;21102;-69
2022/12/27 00:45:31;;;;;;;27.95;13.30;;;20.50;86.90;;;;;;1897534;74;21100;-69
2022/12/27 00:48:02;;;;;;;18.62;12.75;;;20.50;86.70;;;;;;1868015;75;21154;-71
2022/12/27 00:50:34;;;;;;;22.22;12.95;;;20.60;86.50;;;;;;1870652;75;21150;-71
2022/12/27 00:53:08;;;;;;;19.02;12.33;;;20.60;86.20;;;;;;1862924;76;21185;-70
2022/12/27 00:55:42;;;;;;;;;;;20.70;86.00;;;;;;1860836;76;21245;-71
2022/12/27 00:58:13;;;;;;;20.68;12.28;;;20.80;85.80;;;;;;1857488;76;20224;-70
2022/12/27 01:00:45;;;;;;;21.50;13.65;;;20.80;85.60;;;;;;1855801;76;21253;-69
2022/12/27 01:03:19;;;;;;;21.35;12.70;;;20.90;86.00;;;;;;1898614;74;21237;-70
2022/12/27 01:05:50;;;;;;;19.00;11.25;;;20.90;85.30;;;;;;1857774;76;21093;-70
2022/12/27 01:08:21;;;;;;;19.17;12.18;;;21.00;85.10;;;;;;1866821;75;21152;-70
2022/12/27 01:10:52;;;;;;;20.68;12.23;;;21.00;84.80;;;;;;1862251;76;21280;-70
2022/12/27 01:13:23;;;;;;;22.15;14.00;;;21.10;84.90;;;;;;1859797;75;21170;-69
2022/12/27 01:15:55;;;;;;;29.60;15.68;;;21.10;84.80;;;;;;1870037;75;21160;-68
2022/12/27 01:18:26;;;;;;;25.02;15.65;;;21.20;84.90;;;;;;1869320;75;21125;-70
2022/12/27 01:20:57;;;;;;;28.83;17.25;;;21.20;84.80;;;;;;1866075;75;21183;-70
2022/12/27 01:23:31;;;;;;;16.45;11.53;;;21.20;84.70;;;;;;1904224;74;21167;-68
2022/12/27 01:26:04;;;;;;;17.23;11.30;;;21.30;84.60;;;;;;1897500;74;21357;-70
2022/12/27 01:28:36;;;;;;;14.65;8.25;;;21.40;84.40;;;;;;1904571;74;21047;-70
2022/12/27 01:31:09;;;;;;;10.30;7.47;;;21.40;83.80;;;;;;1865813;75;21285;-71
2022/12/27 01:34:00;;;;;;;11.65;7.95;;;21.40;83.80;;;;;;1870016;75;21124;-70
2022/12/27 01:36:32;;;;;;;13.40;8.68;;;21.50;83.40;;;;;;1858013;75;21091;-70
2022/12/27 01:39:03;;;;;;;15.13;8.95;;;21.50;83.40;;;;;;1876504;75;21201;-70
2022/12/27 01:44:42;;;;;;;14.80;9.65;;;21.60;83.30;;;;;;1829909;76;21693;-71
2022/12/27 01:47:28;;;;;;;17.23;9.40;;;21.60;83.10;;;;;;1877147;75;21140;-71
2022/12/27 01:50:18;;;;;;;14.45;9.83;;;21.70;83.20;;;;;;1890046;74;21585;-70
2022/12/27 01:53:05;;;;;;;17.85;10.98;;;21.70;83.20;;;;;;1838075;76;21136;-69
2022/12/27 01:55:50;;;;;;;19.32;11.28;;;21.70;83.30;;;;;;1851866;76;21509;-68
2022/12/27 01:58:34;;;;;;;17.05;10.93;;;21.80;83.10;;;;;;1862638;76;21083;-70
2022/12/27 02:01:07;;;;;;;19.75;12.93;;;21.80;83.00;;;;;;1857083;76;21237;-69
2022/12/27 02:03:44;;;;;;;17.15;11.78;;;21.90;83.10;;;;;;1877370;75;21220;-69
2022/12/27 02:06:16;;;;;;;20.40;13.95;;;21.90;83.20;;;;;;1879642;75;21129;-71
2022/12/27 02:08:58;;;;;;;17.70;12.13;;;22.00;83.30;;;;;;1885771;75;21668;-71
2022/12/27 02:11:50;;;;;;;20.97;12.35;;;22.00;82.90;;;;;;1877418;75;21183;-70
2022/12/27 02:14:48;;;;;;;20.62;13.48;;;22.00;83.00;;;;;;1855033;75;21127;-70
2022/12/27 02:17:27;;;;;;;22.37;14.00;;;22.10;83.10;;;;;;1886743;75;21149;-70
2022/12/27 02:20:10;;;;;;;17.50;11.93;;;22.10;83.20;;;;;;1877738;75;21165;-69
2022/12/27 02:26:02;;;;;;;19.77;11.80;;;22.30;82.30;;;;;;1864516;76;21160;-70
2022/12/27 02:28:59;;;;;;;17.05;10.93;;;22.30;82.50;;;;;;1845026;77;21111;-70
2022/12/27 02:31:58;;;;;;;18.92;12.53;;;22.30;82.30;;;;;;1833839;77;21242;-70
2022/12/27 02:34:52;;;;;;;22.52;12.35;;;22.40;82.50;;;;;;1859710;76;21136;-70
2022/12/27 02:37:26;;;;;;;18.15;11.20;;;22.40;82.60;;;;;;1823873;77;21096;-70
2022/12/27 02:54:15;;;;;;;16.62;10.10;;;22.90;81.30;;;;;;1869538;75;21816;-69
2022/12/27 02:57:09;;;;;;;14.68;8.68;;;23.00;81.00;;;;;;1880059;75;21153;-72
2022/12/27 03:09:02;;;;;;;12.43;6.83;;;23.20;79.20;;;;;;1871706;76;21151;-72
2022/12/27 03:17:33;;;;;;;13.08;7.60;;;23.40;78.40;;;;;;1854792;76;22079;-71
2022/12/27 03:25:49;;;;;;;11.45;7.58;;;23.70;77.90;;;;;;1821535;77;21185;-71
2022/12/27 03:34:30;;;;;;;14.03;7.30;;;24.00;77.40;;;;;;1846415;76;21163;-71
2022/12/27 03:39:33;;;;;;;12.88;7.45;;;24.10;76.80;;;;;;1807520;78;21185;-68
2022/12/27 03:44:58;;;;;;;11.48;6.33;;;24.30;76.10;;;;;;1839315;76;21157;-69
2022/12/27 03:47:45;;;;;;;11.10;7.10;;;24.40;75.10;;;;;;1827600;77;21889;-71
2022/12/27 03:50:24;;;;;;;11.47;5.77;;;24.50;75.00;;;;;;1884211;75;21212;-70
2022/12/27 03:53:10;;;;;;;12.33;6.05;;;24.60;74.30;;;;;;1871496;75;21121;-70
2022/12/27 03:55:41;;;;;;;11.22;6.87;;;24.70;74.20;;;;;;1854813;75;21119;-70
2022/12/27 03:58:12;;;;;;;10.53;5.65;;;24.70;73.80;;;;;;1837640;76;21101;-70
2022/12/27 04:00:44;;;;;;;10.35;5.78;;;24.80;73.10;;;;;;1842368;76;21252;-70
2022/12/27 04:03:15;;;;;;;8.43;5.90;;;24.90;72.80;;;;;;1873274;75;21126;-72
2022/12/27 04:05:46;;;;;;;13.05;5.95;;;24.90;71.70;;;;;;1875457;75;21738;-72
2022/12/27 04:36:28;;;;;;;9.13;5.05;;;26.10;68.60;;;;;;1862959;75;21202;-70
2022/12/27 04:38:59;;;;;;;8.88;5.28;;;26.20;68.40;;;;;;1822564;77;21078;-70
2022/12/27 04:55:41;;;;;;;10.30;5.92;;;26.60;67.40;;;;;;1819974;76;21123;-71
2022/12/27 04:58:12;;;;;;;10.18;5.72;;;26.70;67.00;;;;;;1825186;76;21085;-71
2022/12/27 05:03:34;;;;;;;11.28;6.20;;;26.80;65.60;;;;;;1864796;75;21772;-69
2022/12/27 05:06:07;;;;;;;8.53;4.92;;;26.80;65.00;;;;;;1876631;74;21253;-71
2022/12/27 05:14:16;;;;;;;11.05;5.47;;;27.10;65.50;;;;;;1866894;75;21124;-71
2022/12/27 05:16:47;;;;;;;10.45;6.92;;;27.20;65.10;;;;;;1872209;75;21578;-73
2022/12/27 05:19:18;;;;;;;11.48;6.35;;;27.30;64.60;;;;;;1877331;74;21161;-72
2022/12/27 05:27:27;;;;;;;9.73;6.37;;;27.50;63.50;;;;;;1833112;76;21092;-71
2022/12/27 05:29:58;;;;;;;13.40;6.15;;;27.50;64.10;;;;;;1828178;76;21131;-72
2022/12/27 05:32:29;;;;;;;12.47;6.30;;;27.60;63.20;;;;;;1833569;76;21178;-70
2022/12/27 05:35:01;;;;;;;9.35;5.45;;;27.70;63.10;;;;;;1824407;76;21228;-71
2022/12/27 05:37:33;;;;;;;13.90;5.78;;;27.80;64.20;;;;;;1827754;77;21146;-71
2022/12/27 05:40:10;;;;;;;9.85;5.83;;;27.80;63.00;;;;;;1793762;79;21631;-71
2022/12/27 05:42:42;;;;;;;9.93;6.12;;;27.80;63.20;;;;;;1817296;77;21613;-72
2022/12/27 05:45:13;;;;;;;11.97;7.08;;;27.80;62.30;;;;;;1785202;78;21139;-71
2022/12/27 05:47:44;;;;;;;11.73;7.50;;;27.80;61.60;;;;;;1780901;79;21112;-72
2022/12/27 05:50:16;;;;;;;12.55;6.75;;;27.90;61.70;;;;;;1784019;79;21151;-70
2022/12/27 05:52:47;;;;;;;14.28;7.05;;;27.90;62.60;;;;;;1817514;77;21296;-71
2022/12/27 05:55:19;;;;;;;11.88;7.25;;;28.10;61.90;;;;;;1825694;77;21100;-71
2022/12/27 05:57:50;;;;;;;13.72;7.75;;;28.20;61.50;;;;;;1842923;76;21084;-71
2022/12/27 06:00:21;;;;;;;11.53;7.40;;;28.20;60.90;;;;;;1841696;76;21257;-73
2022/12/27 06:02:52;;;;;;;9.40;6.72;;;28.30;61.20;;;;;;1818294;77;21091;-72
2022/12/27 06:05:26;;;;;;;13.03;7.08;;;28.40;61.80;;;;;;1799002;78;21556;-71
2022/12/27 06:07:56;;;;;;;11.48;7.50;;;28.30;61.00;;;;;;1796982;79;21215;-71
2022/12/27 06:10:28;;;;;;;16.90;8.45;;;28.20;61.00;;;;;;1825635;77;21182;-71
2022/12/27 06:13:00;;;;;;;11.45;7.28;;;28.00;61.30;;;;;;1819661;77;21150;-72
2022/12/27 06:15:35;;;;;;;10.58;6.12;;;27.90;61.80;;;;;;1782982;78;21174;-71
2022/12/27 06:18:05;;;;;;;12.35;7.28;;;27.90;61.30;;;;;;1788621;78;21609;-72
2022/12/27 06:20:36;;;;;;;12.80;7.72;;;27.90;61.70;;;;;;1846324;76;21136;-71
2022/12/27 06:23:09;;;;;;;11.93;7.20;;;27.80;61.30;;;;;;1853452;76;21188;-72
2022/12/27 06:25:40;;;;;;;9.48;6.40;;;27.80;61.50;;;;;;1841037;76;21760;-72
2022/12/27 06:28:11;;;;;;;15.43;7.60;;;27.80;61.00;;;;;;1830560;77;21150;-72
2022/12/27 06:30:42;;;;;;;11.22;7.12;;;27.70;61.20;;;;;;1848004;76;21236;-70
2022/12/27 06:33:16;;;;;;;11.33;7.28;;;27.60;61.60;;;;;;1834683;77;21631;-72
2022/12/27 06:35:49;;;;;;;13.50;8.98;;;27.50;62.60;;;;;;1824399;77;21756;-72
2022/12/27 06:38:27;;;;;;;10.48;7.65;;;27.50;62.50;;;;;;1855130;76;21230;-71
2022/12/27 06:41:02;;;;;;;11.18;7.20;;;27.40;62.70;;;;;;1857420;76;21092;-72
2022/12/27 06:43:38;;;;;;;10.82;6.65;;;27.40;62.80;;;;;;1854694;76;21078;-71
2022/12/27 06:46:11;;;;;;;11.88;5.85;;;27.30;62.40;;;;;;1855683;76;21198;-74
2022/12/27 06:48:44;;;;;;;15.45;7.58;;;27.20;62.40;;;;;;1827179;77;21121;-73
2022/12/27 06:51:17;;;;;;;12.05;7.35;;;27.20;62.80;;;;;;1858015;76;21129;-72
2022/12/27 06:53:49;;;;;;;10.23;6.78;;;27.20;62.70;;;;;;1826670;77;21206;-71
2022/12/27 06:56:22;;;;;;;10.55;6.92;;;27.30;61.80;;;;;;1853957;76;21072;-73
2022/12/27 06:58:53;;;;;;;9.78;6.30;;;27.40;61.50;;;;;;1860733;76;21182;-71
2022/12/27 07:01:26;;;;;;;12.33;6.12;;;27.40;61.90;;;;;;1816536;77;21147;-71
2022/12/27 07:04:00;;;;;;;11.78;6.17;;;27.40;62.50;;;;;;1820714;77;21227;-72
2022/12/27 07:06:32;;;;;;;11.55;6.17;;;27.50;61.90;;;;;;1853422;76;21129;-72
2022/12/27 07:09:07;;;;;;;10.58;5.92;;;27.50;62.20;;;;;;1824865;77;21171;-72
2022/12/27 07:11:42;;;;;;;10.55;6.45;;;27.60;61.10;;;;;;1851748;76;21228;-72
2022/12/27 07:14:13;;;;;;;16.97;6.60;;;27.70;61.30;;;;;;1854872;76;21078;-71
2022/12/27 07:16:48;;;;;;;13.58;7.15;;;27.70;61.10;;;;;;1849240;76;21129;-72
2022/12/27 07:19:20;;;;;;;10.68;5.50;;;27.80;60.20;;;;;;1827676;77;21132;-72
2022/12/27 07:21:51;;;;;;;10.78;5.72;;;27.90;59.40;;;;;;1849447;76;21909;-72
2022/12/27 07:24:22;;;;;;;8.55;4.97;;;;;;;;;;1848215;76;21186;-70
2022/12/27 07:26:53;;;;;;;9.38;5.40;;;28.00;57.80;;;;;;1855137;76;21117;-72
2022/12/27 07:29:24;;;;;;;7.80;5.72;;;28.00;57.90;;;;;;1849743;76;21154;-73
2022/12/27 07:32:18;;;;;;;10.50;5.25;;;28.00;58.10;;;;;;1845512;76;21802;-72
2022/12/27 07:34:46;;;;;;;8.58;5.47;;;28.00;58.60;;;;;;1846460;76;21283;-72
2022/12/27 07:37:41;;;;;;;10.40;5.40;;;28.10;58.70;;;;;;1851029;76;21145;-72
2022/12/27 07:40:13;;;;;;;8.93;5.75;;;28.10;58.60;;;;;;1857848;76;21118;-72
2022/12/27 07:42:44;;;;;;;8.13;6.20;;;28.10;58.20;;;;;;1851781;76;21079;-71
2022/12/27 07:45:15;;;;;;;8.28;5.67;;;28.10;59.30;;;;;;1848358;76;21657;-72
2022/12/27 07:47:46;;;;;;;12.68;6.10;;;28.20;58.00;;;;;;1847064;76;21177;-73
2022/12/27 07:50:17;;;;;;;10.82;5.50;;;28.20;57.30;;;;;;1845311;76;21184;-70
2022/12/27 07:52:49;;;;;;;12.43;5.83;;;28.20;57.50;;;;;;1845971;76;21133;-72
2022/12/27 07:55:39;;;;;;;8.55;5.00;;;28.10;57.60;;;;;;1844788;76;21148;-72
2022/12/27 07:58:13;;;;;;;9.43;5.40;;;28.10;58.00;;;;;;1851993;76;21168;-73
2022/12/27 08:00:45;;;;;;;10.20;5.67;;;28.10;57.70;;;;;;1880662;74;21204;-72
2022/12/27 08:03:20;;;;;;;9.00;4.62;;;28.10;58.00;;;;;;1903823;74;21060;-71
2022/12/27 08:05:55;;;;;;;11.03;5.00;;;28.20;58.20;;;;;;1823219;77;21172;-71
2022/12/27 08:08:29;;;;;;;10.05;4.75;;;28.20;57.70;;;;;;1820896;77;21885;-72
2022/12/27 08:11:01;;;;;;;9.45;5.20;;;28.10;57.40;;;;;;1820715;77;21716;-72
2022/12/27 08:13:33;;;;;;;11.08;5.47;;;28.10;57.80;;;;;;1857096;73;21553;-71
2022/12/27 08:16:05;;;;;;;8.60;4.85;;;28.00;58.50;;;;;;1863215;75;21157;-74
2022/12/27 08:18:36;;;;;;;7.78;4.97;;;27.90;57.80;;;;;;1861211;75;21058;-73
2022/12/27 08:21:08;;;;;;;10.30;5.30;;;27.80;58.00;;;;;;1832932;76;21210;-72
2022/12/27 08:23:42;;;;;;;8.55;5.33;;;27.70;58.10;;;;;;1886108;74;21142;-72
2022/12/27 08:26:15;;;;;;;8.45;4.87;;;27.60;58.20;;;;;;1868093;74;21197;-74
2022/12/27 08:28:46;;;;;;;11.18;5.15;;;27.50;58.70;;;;;;1882382;74;21203;-73
2022/12/27 08:31:17;;;;;;;10.75;5.35;;;27.50;58.70;;;;;;1852631;75;21209;-73
2022/12/27 08:33:50;;;;;;;9.23;5.17;;;27.40;58.80;;;;;;1870164;74;21143;-72
2022/12/27 08:36:25;;;;;;;8.83;5.80;;;27.30;58.90;;;;;;1869193;74;21129;-71
2022/12/27 08:39:00;;;;;;;8.33;5.87;;;27.20;59.00;;;;;;1879290;74;21071;-72
2022/12/27 08:41:32;;;;;;;9.08;4.90;;;27.20;59.40;;;;;;1880783;74;21156;-70
2022/12/27 08:44:03;;;;;;;9.53;5.37;;;27.20;59.50;;;;;;1892270;74;21956;-70
2022/12/27 08:46:35;;;;;;;8.35;5.17;;;27.10;59.50;;;;;;1891860;74;21277;-71
2022/12/27 08:49:08;;;;;;;8.70;5.70;;;27.10;59.60;;;;;;1885884;74;21203;-70
2022/12/27 08:51:39;;;;;;;10.93;5.58;;;27.10;59.70;;;;;;1889347;74;21222;-72
2022/12/27 08:54:10;;;;;;;8.55;5.28;;;27.10;59.40;;;;;;1888645;74;21181;-71
2022/12/27 08:56:41;;;;;;;11.55;5.60;;;27.10;59.60;;;;;;1890337;74;21707;-71
2022/12/27 08:59:14;;;;;;;10.45;5.37;;;27.10;59.70;;;;;;1903653;74;21763;-71
2022/12/27 09:01:46;;;;;;;10.65;5.30;;;27.10;59.40;;;;;;1903374;74;21196;-72
2022/12/27 09:04:19;;;;;;;9.05;5.15;;;27.10;59.50;;;;;;1898848;74;21585;-71
2022/12/27 09:06:51;;;;;;;8.50;5.33;;;27.20;59.40;;;;;;1901798;74;21147;-72
2022/12/27 09:09:22;;;;;;;8.48;5.62;;;27.20;59.40;;;;;;1900614;74;21106;-70
2022/12/27 09:11:53;;;;;;;10.75;4.90;;;27.20;59.20;;;;;;1868307;75;21170;-72
2022/12/27 09:14:25;;;;;;;6.92;5.30;;;27.20;59.10;;;;;;1864248;75;21240;-72
2022/12/27 09:16:57;;;;;;;10.03;6.35;;;27.20;59.10;;;;;;1869383;75;21174;-70
2022/12/27 09:19:29;;;;;;;11.08;6.08;;;27.20;59.80;;;;;;1904629;74;21142;-71
2022/12/27 09:22:00;;;;;;;10.78;5.90;;;27.30;59.40;;;;;;1904730;74;21074;-72
2022/12/27 09:24:31;;;;;;;9.38;6.22;;;27.30;59.20;;;;;;1827268;76;21162;-73
2022/12/27 09:27:02;;;;;;;15.23;7.12;;;27.30;58.90;;;;;;1869648;75;21248;-72
2022/12/27 09:29:33;;;;;;;9.63;6.08;;;27.30;58.50;;;;;;1906307;74;21159;-71
2022/12/27 09:32:04;;;;;;;11.10;6.20;;;27.40;58.80;;;;;;1911029;74;21204;-71
2022/12/27 09:34:35;;;;;;;12.35;6.28;;;27.40;58.60;;;;;;1905992;74;21130;-72
2022/12/27 09:37:06;;;;;;;8.08;5.55;;;27.30;58.80;;;;;;1906827;74;21164;-71
2022/12/27 09:39:37;;;;;;;9.73;6.08;;;27.30;58.80;;;;;;1907009;74;21121;-72
2022/12/27 09:42:22;;;;;;;10.32;5.75;;;27.30;58.80;;;;;;1874632;75;21167;-73
2022/12/27 09:45:01;;;;;;;;;;;27.30;59.20;;;;;;1904588;74;21106;-70
2022/12/27 09:47:49;;;;;;;8.45;5.72;;;27.30;59.50;;;;;;1893889;74;20154;-75
2022/12/27 09:50:23;;;;;;;9.18;5.55;;;27.20;59.20;;;;;;1912043;74;21711;-70
2022/12/27 09:53:07;;;;;;;8.53;5.30;;;27.20;59.00;;;;;;1902002;74;21139;-71
2022/12/27 09:55:42;;;;;;;8.33;5.10;;;27.10;59.10;;;;;;1911198;74;21570;-72
2022/12/27 09:58:37;;;;;;;8.63;5.65;;;27.10;59.20;;;;;;1896518;72;21147;-71
2022/12/27 10:01:20;;;;;;;12.68;6.08;;;27.00;58.90;;;;;;1928860;73;21188;-72
2022/12/27 10:03:52;;;;;;;19.02;7.20;;;27.00;59.20;;;;;;1930355;73;21790;-71
2022/12/27 10:06:55;;;;;;;19.25;7.22;;;27.00;59.10;;;;;;1895475;74;21082;-72
2022/12/27 10:09:38;;;;;;;11.08;7.08;;;26.90;59.30;;;;;;1814387;77;21109;-71
2022/12/27 10:12:41;;;;;;;16.45;7.65;;;26.90;59.40;;;;;;1812584;78;21300;-72
2022/12/27 10:15:21;;;;;;;12.47;7.53;;;26.90;59.30;;;;;;1878932;74;21085;-70
2022/12/27 10:18:14;;;;;;;13.43;7.67;;;26.80;59.30;;;;;;1896393;74;21628;-71
2022/12/27 10:21:12;;;;;;;11.78;6.95;;;26.80;59.80;;;;;;1898835;74;21167;-71
2022/12/27 10:23:45;;;;;;;10.55;6.65;;;26.80;59.70;;;;;;1893859;74;21256;-72
2022/12/27 10:26:18;;;;;;;13.53;5.85;;;26.70;59.50;;;;;;1895187;74;21221;-71
2022/12/27 10:29:04;;;;;;;10.45;5.65;;;26.70;59.70;;;;;;1898171;74;21173;-72
2022/12/27 10:31:32;;;;;;;9.30;5.53;;;26.70;59.50;;;;;;1901496;74;21208;-73
2022/12/27 10:34:03;;;;;;;10.32;6.17;;;26.70;59.50;;;;;;1895495;74;21177;-72
2022/12/27 10:36:35;;;;;;;11.35;6.15;;;26.60;59.50;;;;;;1900230;73;21082;-73
2022/12/27 10:39:11;;;;;;;8.63;6.30;;;26.60;59.80;;;;;;1893504;74;21578;-73
2022/12/27 10:41:52;;;;;;;;;;;26.50;59.50;;;;;;1887229;74;21544;-72
2022/12/27 10:44:24;;;;;;;13.53;6.40;;;26.50;60.00;;;;;;1894246;74;20623;-72
2022/12/27 10:46:57;;;;;;;11.30;7.03;;;26.50;60.50;;;;;;1887552;74;21148;-73
2022/12/27 10:49:30;;;;;;;11.97;7.08;;;26.40;60.80;;;;;;1890852;74;21171;-70
2022/12/27 10:52:18;;;;;;;17.23;7.17;;;26.40;61.20;;;;;;1893802;74;21213;-70
2022/12/27 10:54:54;;;;;;;14.98;6.65;;;26.40;61.40;;;;;;1892957;74;21091;-72
2022/12/27 10:57:31;;;;;;;13.32;7.40;;;26.30;61.80;;;;;;1892400;74;21205;-72
2022/12/27 11:00:21;;;;;;;21.17;11.83;;;26.30;62.10;;;;;;1896461;74;21944;-71
2022/12/27 11:02:54;;;;;;;16.95;8.70;;;26.30;63.00;;;;;;1879125;74;21163;-71
2022/12/27 11:05:27;;;;;;;22.52;8.93;;;26.30;62.80;;;;;;1888749;74;21055;-71
2022/12/27 11:08:00;;;;;;;16.12;9.15;;;26.30;62.90;;;;;;1886511;74;21155;-72
2022/12/27 11:10:32;;;;;;;15.70;8.53;;;26.20;63.00;;;;;;1852505;76;21475;-72
2022/12/27 11:13:05;;;;;;;15.78;7.92;;;26.20;63.30;;;;;;1880048;75;21158;-71
2022/12/27 11:15:41;;;;;;;14.35;8.03;;;26.20;63.50;;;;;;1862925;75;21224;-71
2022/12/27 11:18:14;;;;;;;17.75;8.25;;;26.20;63.70;;;;;;1850950;76;21242;-75
2022/12/27 11:20:50;;;;;;;12.90;7.87;;;26.10;63.70;;;;;;1886421;74;21056;-73
2022/12/27 11:23:24;;;;;;;14.65;8.15;;;26.10;64.10;;;;;;1889803;74;21618;-69
2022/12/27 11:26:00;;;;;;;17.25;10.00;;;26.00;64.30;;;;;;1889920;74;21224;-73
2022/12/27 11:28:40;;;;;;;17.02;8.68;;;26.00;64.40;;;;;;1885645;74;21118;-72
2022/12/27 11:31:19;;;;;;;13.80;7.95;;;26.00;64.50;;;;;;1890425;74;21570;-72
2022/12/27 11:33:53;;;;;;;12.53;7.72;;;26.00;64.50;;;;;;1890396;74;21546;-73
2022/12/27 11:36:50;;;;;;;14.00;7.87;;;26.00;64.60;;;;;;1893491;74;21149;-70
2022/12/27 11:39:47;;;;;;;16.20;8.38;;;25.90;64.80;;;;;;1888952;74;21130;-73
2022/12/27 11:42:37;;;;;;;17.52;7.97;;;25.90;64.90;;;;;;1910902;73;21673;-71
2022/12/27 11:45:17;;;;;;;15.13;8.00;;;25.90;65.10;;;;;;1918239;73;21192;-70
2022/12/27 11:47:53;;;;;;;15.75;8.83;;;25.90;65.40;;;;;;1925928;73;21389;-72
2022/12/27 11:50:35;;;;;;;;;;;25.90;65.50;;;;;;1932166;73;21170;-73
2022/12/27 11:53:24;;;;;;;13.05;8.45;;;25.80;65.30;;;;;;1927910;73;20298;-72
2022/12/27 11:56:25;;;;;;;22.07;9.50;;;25.80;65.70;;;;;;1929070;73;21550;-86
2022/12/27 11:58:58;;;;;;;15.85;9.10;;;25.80;65.90;;;;;;1928732;73;21087;-85
2022/12/27 12:01:49;;;;;;;16.85;8.83;;;25.70;66.00;;;;;;1935827;73;21781;-82
2022/12/27 12:04:55;;;;;;;15.72;9.13;;;25.70;66.10;;;;;;1939659;73;21154;-86
2022/12/27 12:08:01;;;;;;;16.32;10.43;;;25.60;66.20;;;;;;1931280;73;21138;-93
2022/12/27 12:10:59;;;;;;;17.50;10.08;;;25.60;66.60;;;;;;1933759;73;21076;-89
2022/12/27 12:13:49;;;;;;;17.45;9.83;;;25.60;66.70;;;;;;1887252;73;21131;-92
2022/12/27 12:16:46;;;;;;;19.62;11.12;;;25.60;66.80;;;;;;1931627;73;21177;-90
2022/12/27 12:19:42;;;;;;;20.02;10.75;;;25.50;66.80;;;;;;1926705;73;21056;-89
2022/12/27 12:22:36;;;;;;;;;;;25.50;67.10;;;;;;1867046;74;21149;-92
2022/12/27 12:25:28;;;;;;;23.12;11.97;;;25.40;66.90;;;;;;1855367;76;20215;-88
2022/12/27 12:28:40;;;;;;;20.40;12.03;;;25.40;67.40;;;;;;1924657;73;21099;-90
2022/12/27 12:31:34;;;;;;;20.12;13.03;;;25.40;67.90;;;;;;1919118;73;21091;-88
2022/12/27 12:34:29;;;;;;;21.35;13.40;;;25.30;67.90;;;;;;1902203;74;21241;-89
2022/12/27 12:37:11;;;;;;;22.65;13.75;;;25.30;68.10;;;;;;1852436;76;21100;-89
2022/12/27 12:40:03;;;;;;;18.27;12.00;;;25.30;68.50;;;;;;1861207;76;21155;-89
2022/12/27 12:42:54;;;;;;;22.37;13.08;;;25.20;68.20;;;;;;1920008;73;21128;-89
2022/12/27 12:45:47;;;;;;;22.60;13.05;;;25.20;68.80;;;;;;1921454;73;21040;-89
2022/12/27 12:48:29;;;;;;;25.72;13.08;;;25.20;68.90;;;;;;1916505;73;21079;-89
2022/12/27 12:51:18;;;;;;;31.90;14.78;;;25.20;68.90;;;;;;1916694;74;21023;-89
2022/12/27 12:54:11;;;;;;;22.87;13.20;;;25.10;69.20;;;;;;1895605;75;21015;-88
2022/12/27 12:57:08;;;;;;;20.30;13.72;;;25.10;69.30;;;;;;1928158;73;21515;-88
2022/12/27 12:59:41;;;;;;;31.65;14.80;;;25.10;69.30;;;;;;1913989;74;21196;-89
2022/12/27 13:02:38;;;;;;;28.87;15.35;;;25.10;69.80;;;;;;1930209;73;21075;-89
2022/12/27 13:05:24;;;;;;;27.25;14.83;;;25.10;70.00;;;;;;1924672;73;21087;-89
2022/12/27 13:08:12;;;;;;;26.95;14.83;;;25.00;70.00;;;;;;1908216;74;21123;-90
2022/12/27 13:11:05;;;;;;;25.72;15.00;;;25.00;70.30;;;;;;1918431;74;21033;-87
2022/12/27 13:14:14;;;;;;;27.45;15.18;;;25.00;70.30;;;;;;1906938;75;21033;-89
2022/12/27 13:17:12;;;;;;;29.95;16.95;;;24.90;70.40;;;;;;1906584;75;21094;-89
2022/12/27 13:19:57;;;;;;;27.30;15.30;;;25.00;70.90;;;;;;1902174;74;21091;-89
2022/12/27 13:22:57;;;;;;;28.83;16.80;;;25.00;70.70;;;;;;1936495;74;21642;-89
2022/12/27 13:25:49;;;;;;;27.58;16.37;;;25.00;70.70;;;;;;1925635;74;21147;-87
2022/12/27 13:28:55;;;;;;;27.93;17.12;;;25.00;70.70;;;;;;1890589;74;21137;-89
2022/12/27 13:31:29;;;;;;;31.73;17.15;;;24.90;71.10;;;;;;1854924;74;21061;-88
2022/12/27 13:34:26;;;;;;;28.05;17.87;;;24.90;71.40;;;;;;1847724;76;21200;-87
2022/12/27 13:37:32;;;;;;;37.98;18.87;;;24.80;71.60;;;;;;1889576;74;21111;-86
2022/12/27 13:40:25;;;;;;;31.42;17.75;;;24.80;71.80;;;;;;1906827;74;21190;-88
2022/12/27 13:43:28;;;;;;;35.43;18.60;;;24.80;71.70;;;;;;1937343;73;21532;-87
2022/12/27 13:46:20;;;;;;;31.97;18.65;;;24.80;72.10;;;;;;1900541;73;21618;-87
2022/12/27 13:49:24;;;;;;;32.03;19.25;;;24.80;72.50;;;;;;1854930;76;21104;-88
2022/12/27 13:52:02;;;;;;;39.95;20.20;;;24.70;73.00;;;;;;1792180;80;21126;-88
2022/12/27 13:54:42;;;;;;;41.77;20.75;;;24.60;73.50;;;;;;1795230;79;21103;-86
2022/12/27 13:58:01;;;;;;;37.58;21.37;;;24.60;73.30;;;;;;1838099;75;21165;-87
2022/12/27 14:01:20;;;;;;;49.25;24.80;;;24.60;73.20;;;;;;1909498;75;21139;-88
2022/12/27 14:04:09;;;;;;;50.35;25.75;;;24.60;73.60;;;;;;1912989;73;21092;-88
2022/12/27 14:07:01;;;;;;;46.20;26.50;;;24.60;73.70;;;;;;1909521;73;21087;-88
2022/12/27 14:09:55;;;;;;;43.78;26.05;;;24.60;73.70;;;;;;1904968;74;21186;-88
2022/12/27 14:12:41;;;;;;;55.85;29.90;;;24.60;74.40;;;;;;1924822;73;21139;-87
2022/12/27 14:15:17;;;;;;;49.42;28.07;;;24.60;74.90;;;;;;1931839;73;21048;-88
2022/12/27 14:18:16;;;;;;;52.15;26.25;;;24.60;75.00;;;;;;1935793;73;21048;-86
2022/12/27 14:20:59;;;;;;;64.27;30.30;;;24.60;75.00;;;;;;1917730;74;21095;-88
2022/12/27 14:23:35;;;;;;;54.27;30.70;;;24.60;76.20;;;;;;1891149;76;21191;-87
2022/12/27 14:26:31;;;;;;;57.67;31.40;;;24.60;76.60;;;;;;1889400;76;21075;-88
2022/12/27 14:29:29;;;;;;;57.35;28.20;;;24.60;76.80;;;;;;1918236;74;21155;-87
2022/12/27 14:32:28;;;;;;;50.30;28.50;;;24.60;76.70;;;;;;1925823;74;21071;-88
2022/12/27 14:35:18;;;;;;;56.48;29.40;;;24.60;77.40;;;;;;1926678;73;21464;-88
2022/12/27 14:37:52;;;;;;;53.95;28.42;;;24.50;77.60;;;;;;1925249;74;21145;-88
2022/12/27 14:40:48;;;;;;;51.88;28.75;;;24.50;77.80;;;;;;1903665;74;21049;-89
2022/12/27 14:44:02;;;;;;;39.98;25.40;;;24.50;78.60;;;;;;1903506;75;21052;-87
2022/12/27 14:46:46;;;;;;;;;;;24.40;78.00;;;;;;1907356;75;21730;-87
2022/12/27 14:49:34;;;;;;;50.40;26.23;;;24.40;77.00;;;;;;1904079;75;20162;-88
2022/12/27 14:52:10;;;;;;;51.55;29.72;;;24.40;77.90;;;;;;1916477;74;21043;-90
2022/12/27 14:55:01;;;;;;;49.25;25.37;;;24.40;78.30;;;;;;1892290;75;21165;-89
2022/12/27 14:57:46;;;;;;;44.77;24.90;;;24.40;78.10;;;;;;1906295;74;21105;-91
2022/12/27 15:00:22;;;;;;;39.80;23.32;;;24.40;78.10;;;;;;1883423;75;21089;-90
2022/12/27 15:03:20;;;;;;;42.05;23.30;;;24.40;77.90;;;;;;1898981;74;21112;-87
2022/12/27 15:06:24;;;;;;;72.20;25.30;;;24.40;77.90;;;;;;1878834;74;21134;-88
2022/12/27 15:09:05;;;;;;;47.05;24.32;;;24.40;77.80;;;;;;1842336;78;21081;-90
2022/12/27 15:11:50;;;;;;;53.65;26.02;;;24.40;77.40;;;;;;1873193;76;21088;-90
2022/12/27 15:14:58;;;;;;;56.45;30.40;;;24.40;78.50;;;;;;1847529;76;21084;-90
2022/12/27 15:17:38;;;;;;;50.90;29.80;;;24.40;79.10;;;;;;1888060;76;21135;-91
2022/12/27 15:20:46;;;;;;;51.85;29.80;;;24.30;78.90;;;;;;1882654;75;21050;-90
2022/12/27 15:23:28;;;;;;;49.60;30.02;;;24.30;78.80;;;;;;1820731;77;21181;-89
2022/12/27 15:26:07;;;;;;;48.90;30.48;;;24.20;78.10;;;;;;1886115;75;21061;-89
2022/12/27 15:29:00;;;;;;;43.50;28.90;;;24.20;78.00;;;;;;1908987;74;21052;-90